Latest Weather Observations for Red Rocks Point

IDW60801

Issued at 4:23 pm WST Tuesday 22 October 2019 (issued every 10 minutes, with the page automatically refreshed every 10 minutes)

About weather observations | Map of weather stations | Latest weather observations for WA | Other Formats
Station Details ID: 011053 Name: RED ROCKS POINT Lat: -32.20 Lon: 127.53 Height: 3.1 m
Data from the previous 72 hours. | See also: Recent months at Red Rocks Point
Date/Time
WST
Temp
°C
App
Temp
°C
Dew
Point
°C
Rel
Hum
%
Delta-T
°C
Wind Press
QNH
hPa
Press
MSL
hPa
Rain since
9am
mm
Dir  Spd
km/h
Gust
km/h
Spd
kts
Gust
kts
22/04:00pm 17.5 15.2 14.6 83 1.7 SSW 20 30 11 16 1014.3 1014.3 0.0
22/03:30pm 18.0 15.3 14.5 80 2.0 SSW 22 28 12 15 1014.4 1014.4 0.0
22/03:00pm 18.6 16.2 14.5 77 2.4 SW 20 30 11 16 1014.6 1014.6 0.0
22/02:30pm 19.5 17.2 14.7 74 2.8 SW 20 28 11 15 1014.8 1014.8 0.0
22/02:00pm 19.6 17.2 14.4 72 3.0 SW 20 30 11 16 1014.9 1014.9 0.0
22/01:30pm 20.1 17.5 14.9 72 3.0 SW 22 32 12 17 1015.1 1015.1 0.0
22/01:00pm 20.4 17.5 15.0 71 3.2 SW 24 32 13 17 1015.4 1015.4 0.0
22/12:30pm 20.4 17.4 14.7 70 3.3 SW 24 33 13 18 1015.7 1015.7 0.0
22/12:00pm 20.2 16.7 14.6 70 3.3 SW 26 35 14 19 1016.1 1016.1 0.0
22/11:30am 20.8 17.5 15.1 70 3.4 SW 26 35 14 19 1016.3 1016.3 0.0
22/11:00am 20.3 16.9 14.7 70 3.3 SW 26 35 14 19 1016.5 1016.5 0.0
22/10:30am 20.0 16.6 14.8 72 3.0 SW 26 37 14 20 1016.9 1016.9 0.0
22/10:00am 20.3 17.0 15.1 72 3.1 SW 26 35 14 19 1017.0 1017.0 0.0
22/09:30am 20.1 16.8 14.9 72 3.0 SW 26 35 14 19 1017.2 1017.2 0.0
22/09:00am 19.7 16.4 15.1 75 2.7 SW 26 33 14 18 1017.1 1017.1 0.0
22/08:30am 20.3 18.5 15.5 74 2.8 SW 19 26 10 14 1017.0 1017.0 0.0
22/08:00am 20.0 18.6 15.6 76 2.6 SW 17 22 9 12 1017.0 1017.0 0.0
22/07:30am 19.3 17.9 15.6 79 2.2 SW 17 22 9 12 1017.0 1017.0 0.0
22/07:00am 18.2 16.9 15.8 86 1.4 SW 17 20 9 11 1017.1 1017.1 0.0
22/06:30am 16.9 15.8 15.2 90 1.0 W 15 20 8 11 1017.0 1017.0 0.0
22/06:00am 16.7 16.4 15.4 92 0.8 W 11 19 6 10 1017.0 1017.0 0.0
22/05:30am 16.4 16.4 15.1 92 0.8 W 9 13 5 7 1016.9 1016.9 0.0
22/05:00am 16.2 14.9 14.9 92 0.7 WSW 15 28 8 15 1016.2 1016.2 0.0
22/04:30am 16.3 14.6 14.8 91 0.9 WSW 17 24 9 13 1015.9 1015.9 0.0
22/04:00am 16.6 15.4 15.0 90 0.9 W 15 22 8 12 1015.9 1015.9 0.0
22/03:30am 17.0 15.5 15.2 89 1.0 WSW 17 26 9 14 1015.3 1015.3 0.0
22/03:00am 17.3 14.9 15.3 88 1.2 WSW 22 30 12 16 1015.0 1015.0 0.0
22/02:30am 17.9 15.4 15.2 84 1.6 WSW 22 33 12 18 1015.1 1015.1 0.0
22/02:00am 17.2 14.5 10.3 64 3.7 WNW 15 20 8 11 1015.1 1015.1 0.0
22/01:30am 18.0 15.7 11.8 67 3.4 NW 15 19 8 10 1014.7 1014.7 0.0
22/01:00am 18.2 17.4 14.1 77 2.3 NE 11 13 6 7 1014.3 1014.3 0.0
22/12:30am 19.1 18.9 15.6 80 2.1 ENE 11 13 6 7 1014.0 1014.0 0.0
22/12:00am 19.4 18.7 15.3 77 2.4 ENE 13 17 7 9 1014.2 1014.2 0.0
 
Date/Time
WST
Temp
°C
App
Temp
°C
Dew
Point
°C
Rel
Hum
%
Delta-T
°C
Wind Press
QNH
hPa
Press
MSL
hPa
Rain since
9am
mm
Dir  Spd
km/h
Gust
km/h
Spd
kts
Gust
kts
21/11:30pm 20.0 18.4 15.0 73 2.9 ENE 17 20 9 11 1014.5 1014.5 0.0
21/11:00pm 20.3 18.2 14.7 70 3.3 E 19 24 10 13 1014.7 1014.7 0.0
21/10:30pm 21.3 18.3 13.7 62 4.4 ESE 22 28 12 15 1014.4 1014.4 0.0
21/10:00pm 21.7 16.9 13.9 61 4.5 ESE 32 39 17 21 1014.5 1014.5 0.0
21/09:30pm 22.4 18.6 13.7 58 5.0 SE 26 35 14 19 1015.1 1015.1 0.0
21/09:16pm 22.8 18.7 12.7 53 5.8 S 26 39 14 21 1015.3 1015.3 0.0
21/09:00pm 21.9 20.4 11.9 53 5.6 WSW 11 20 6 11 1016.1 1016.1 0.0
21/08:30pm 23.5 20.7 13.1 52 6.0 SE 20 26 11 14 1017.4 1017.4 0.0
21/08:00pm 24.8 20.0 8.7 36 8.7 S 24 35 13 19 1017.1 1017.1 0.0
21/07:46pm 23.9 19.4 11.3 45 7.1 S 26 52 14 28 1016.0 1016.0 0.0
21/07:30pm 22.4 18.5 13.2 56 5.3 NE 26 43 14 23 1016.0 1016.0 0.0
21/07:13pm 21.1 18.0 14.5 66 3.9 ENE 24 37 13 20 1015.9 1015.9 0.0
21/07:00pm 21.2 16.5 14.8 67 3.8 ENE 33 39 18 21 1013.9 1013.9 0.0
21/06:30pm 21.0 17.0 15.1 69 3.5 ENE 30 35 16 19 1013.6 1013.6 0.0
21/06:00pm 20.7 17.1 15.3 71 3.2 ENE 28 32 15 17 1013.5 1013.5 0.0
21/05:30pm 20.7 17.9 15.3 71 3.2 ENE 24 32 13 17 1013.3 1013.3 0.0
21/05:00pm 20.9 17.3 15.2 70 3.4 ENE 28 32 15 17 1013.0 1013.0 0.0
21/04:30pm 21.8 18.6 15.4 67 3.8 ENE 26 30 14 16 1013.1 1013.1 0.0
21/04:00pm 22.1 19.4 15.5 66 3.9 ENE 24 28 13 15 1013.2 1013.2 0.0
21/03:30pm 22.7 19.6 15.5 64 4.3 ENE 26 32 14 17 1013.5 1013.5 0.0
21/03:00pm 23.5 21.4 15.3 60 4.9 ENE 20 24 11 13 1013.8 1013.8 0.0
21/02:30pm 23.7 22.3 15.5 60 4.9 ENE 17 20 9 11 1014.0 1014.0 0.0
21/02:00pm 23.9 22.1 15.4 59 5.1 ENE 19 22 10 12 1014.1 1014.1 0.0
21/01:30pm 23.6 21.6 15.4 60 4.9 ENE 20 24 11 13 1014.4 1014.4 0.0
21/01:00pm 24.3 22.6 14.7 55 5.7 ENE 17 20 9 11 1014.8 1014.8 0.0
21/12:30pm 24.1 22.6 14.2 54 5.8 ENE 15 20 8 11 1015.2 1015.2 0.0
21/12:00pm 23.5 21.7 15.5 60 4.8 ENE 19 28 10 15 1015.5 1015.5 0.0
21/11:30am 24.2 22.3 15.1 56 5.4 ENE 19 24 10 13 1015.8 1015.8 0.0
21/11:00am 23.8 22.4 14.5 56 5.5 E 15 19 8 10 1016.1 1016.1 0.0
21/10:30am 23.5 23.2 15.5 60 4.8 E 11 15 6 8 1016.7 1016.7 0.0
21/10:00am 23.3 23.3 15.1 60 4.9 E 9 13 5 7 1017.0 1017.0 0.0
21/09:30am 22.3 22.0 14.4 61 4.6 ENE 9 11 5 6 1017.4 1017.4 0.0
21/09:00am 22.1 22.0 15.0 64 4.2 E 9 13 5 7 1017.8 1017.8 0.0
21/08:30am 21.7 21.5 14.8 65 4.1 ENE 9 11 5 6 1017.8 1017.8 0.0
21/08:00am 21.7 21.8 14.4 63 4.3 E 7 9 4 5 1018.0 1018.0 0.0
21/07:30am 21.1 21.0 13.8 63 4.2 ENE 7 11 4 6 1018.1 1018.1 0.0
21/07:00am 20.9 20.4 13.8 64 4.1 ENE 9 13 5 7 1018.1 1018.1 0.0
21/06:30am 19.9 18.7 12.9 64 4.0 ENE 11 15 6 8 1018.1 1018.1 0.0
21/06:00am 19.5 17.5 10.0 54 5.1 NE 11 15 6 8 1018.0 1018.0 0.0
21/05:30am 17.4 15.0 10.1 62 3.9 ENE 13 15 7 8 1017.9 1017.9 0.0
21/05:00am 15.0 12.2 6.8 58 4.0 NNE 11 15 6 8 1017.7 1017.7 0.0
21/04:30am 14.9 12.8 6.7 58 4.0 NE 7 9 4 5 1017.6 1017.6 0.0
21/04:00am 14.9 12.1 7.0 59 3.9 NNE 11 15 6 8 1017.4 1017.4 0.0
21/03:30am 16.1 13.9 10.8 71 2.8 ENE 13 15 7 8 1017.3 1017.3 0.0
21/03:00am 15.7 13.7 10.2 70 2.9 NE 11 13 6 7 1017.5 1017.5 0.0
21/02:30am 16.2 14.4 10.7 70 2.9 NE 11 13 6 7 1017.6 1017.6 0.0
21/02:00am 15.9 13.4 9.8 67 3.2 NE 13 15 7 8 1017.9 1017.9 0.0
21/01:30am 16.3 14.9 9.7 65 3.4 ENE 7 11 4 6 1018.0 1018.0 0.0
21/01:00am 17.1 15.5 11.6 70 3.0 NE 11 15 6 8 1017.9 1017.9 0.0
21/12:30am 17.6 16.1 11.9 69 3.1 ENE 11 15 6 8 1018.2 1018.2 0.0
21/12:00am 16.6 14.2 10.2 66 3.4 NE 13 15 7 8 1018.2 1018.2 0.0
 
Date/Time
WST
Temp
°C
App
Temp
°C
Dew
Point
°C
Rel
Hum
%
Delta-T
°C
Wind Press
QNH
hPa
Press
MSL
hPa
Rain since
9am
mm
Dir  Spd
km/h
Gust
km/h
Spd
kts
Gust
kts
20/11:30pm 16.7 14.6 9.9 64 3.6 NNE 11 17 6 9 1019.1 1019.1 0.0
20/11:00pm 17.0 14.9 9.9 63 3.7 NNW 11 15 6 8 1019.9 1019.9 0.0
20/10:30pm 17.4 15.0 10.1 62 3.9 NE 13 17 7 9 1019.6 1019.6 0.0
20/10:00pm 17.6 15.2 10.0 61 4.0 NE 13 17 7 9 1020.1 1020.1 0.0
20/09:30pm 18.0 14.6 10.4 61 4.1 NE 19 22 10 12 1020.1 1020.1 0.0
20/09:00pm 17.4 13.9 11.0 66 3.4 NE 20 26 11 14 1020.0 1020.0 0.0
20/08:30pm 17.4 14.6 12.5 73 2.7 NE 19 22 10 12 1020.3 1020.3 0.0
20/08:00pm 17.5 14.5 12.4 72 2.8 NE 20 24 11 13 1020.4 1020.4 0.0
20/07:30pm 17.2 14.6 13.1 77 2.3 NE 19 22 10 12 1019.9 1019.9 0.0
20/07:00pm 17.9 13.7 14.6 81 1.9 ENE 30 35 16 19 1019.5 1019.5 0.0
20/06:30pm 17.9 12.7 14.6 81 1.9 ENE 35 39 19 21 1019.2 1019.2 0.0
20/06:00pm 18.0 12.2 14.9 82 1.8 ENE 39 46 21 25 1019.2 1019.2 0.0
20/05:30pm 17.9 12.4 14.8 82 1.8 ENE 37 44 20 24 1019.3 1019.3 0.0
20/05:00pm 17.9 12.0 14.8 82 1.8 ENE 39 48 21 26 1019.0 1019.0 0.0
20/04:30pm 18.1 12.2 14.8 81 1.9 E 39 44 21 24 1019.1 1019.1 0.0
20/04:00pm 18.2 12.7 14.7 80 2.0 E 37 46 20 25 1019.6 1019.6 0.0
20/03:30pm 18.3 12.4 14.6 79 2.1 E 39 44 21 24 1019.7 1019.7 0.0
20/03:00pm 18.7 13.5 14.6 77 2.4 ENE 35 43 19 23 1019.9 1019.9 0.0
20/02:30pm 18.3 11.9 14.2 77 2.4 ENE 41 46 22 25 1019.9 1019.9 0.0
20/02:00pm 18.2 12.5 14.3 78 2.2 ENE 37 43 20 23 1020.3 1020.3 0.0
20/01:30pm 18.2 12.5 14.3 78 2.2 ENE 37 44 20 24 1020.7 1020.7 0.0
20/01:00pm 18.0 11.8 13.7 76 2.4 ENE 39 46 21 25 1021.0 1021.0 0.0
20/12:30pm 17.9 12.1 13.8 77 2.3 ENE 37 44 20 24 1021.5 1021.5 0.0
20/12:00pm 17.8 11.3 13.9 78 2.2 ENE 41 50 22 27 1021.5 1021.5 0.0
20/11:30am 17.8 11.4 13.1 74 2.6 E 39 46 21 25 1022.0 1022.0 0.0
20/11:00am 17.9 11.5 13.2 74 2.6 E 39 46 21 25 1022.5 1022.5 0.0
20/10:30am 17.8 10.6 13.1 74 2.6 E 43 48 23 26 1022.9 1022.9 0.0
20/10:00am 18.2 11.4 13.1 72 2.9 E 41 48 22 26 1023.3 1023.3 0.0
20/09:30am 18.0 11.4 12.5 70 3.1 E 39 44 21 24 1023.9 1023.9 0.0
20/09:00am 18.1 12.2 12.3 69 3.2 E 35 43 19 23 1024.2 1024.2 0.0
20/08:30am 18.1 11.9 10.2 60 4.2 E 33 39 18 21 1024.4 1024.4 0.0
20/08:00am 17.3 11.3 10.0 62 3.8 ENE 32 39 17 21 1025.1 1025.1 0.0
20/07:30am 16.0 9.8 10.1 68 3.1 ENE 33 43 18 23 1025.2 1025.2 0.0
20/07:00am 15.8 9.7 9.9 68 3.1 ENE 32 37 17 20 1025.4 1025.4 0.0
20/06:30am 14.9 9.1 10.9 77 2.1 ENE 32 41 17 22 1025.4 1025.4 0.0
20/06:00am 14.6 10.0 11.0 79 1.9 NE 26 32 14 17 1025.3 1025.3 0.0
20/05:30am 12.8 9.1 10.2 84 1.3 NE 20 28 11 15 1024.7 1024.7 0.0
20/05:00am 12.7 9.0 10.1 84 1.3 NE 20 26 11 14 1024.6 1024.6 0.0
20/04:30am 12.8 9.1 10.0 83 1.4 NE 20 28 11 15 1024.6 1024.6 0.0
20/04:00am 13.2 10.0 9.8 80 1.7 NE 17 24 9 13 1024.6 1024.6 0.0
20/03:30am 14.2 9.8 10.4 78 2.0 NE 24 32 13 17 1024.1 1024.1 0.0
20/03:14am 14.7 8.4 11.1 79 1.9 ENE 35 48 19 26 1024.0 1024.0 0.0
20/03:00am 15.4 8.2 12.0 80 1.8 ENE 41 52 22 28 1023.7 1023.7 0.0
20/02:30am 15.4 7.9 12.0 80 1.8 E 43 50 23 27 1023.9 1023.9 0.0
20/02:00am 15.4 7.9 12.0 80 1.8 E 43 54 23 29 1023.8 1023.8 0.0
20/01:30am 15.2 8.4 11.8 80 1.8 E 39 48 21 26 1024.2 1024.2 0.0
20/01:00am 15.2 7.9 11.4 78 2.0 ENE 41 50 22 27 1024.6 1024.6 0.0
20/12:30am 14.9 7.1 11.3 79 1.9 E 43 52 23 28 1024.6 1024.6 0.0
20/12:00am 15.1 7.8 11.5 79 1.9 E 41 52 22 28 1024.8 1024.8 0.0
 
Date/Time
WST
Temp
°C
App
Temp
°C
Dew
Point
°C
Rel
Hum
%
Delta-T
°C
Wind Press
QNH
hPa
Press
MSL
hPa
Rain since
9am
mm
Dir  Spd
km/h
Gust
km/h
Spd
kts
Gust
kts
19/11:30pm 15.1 7.3 11.3 78 2.0 E 43 48 23 26 1025.2 1025.2 0.0
19/11:00pm 15.0 7.9 10.8 76 2.2 E 39 46 21 25 1025.9 1025.9 0.0
19/10:30pm 15.2 8.2 11.2 77 2.1 E 39 46 21 25 1026.2 1026.2 0.0
19/10:00pm 15.2 7.7 11.0 76 2.2 E 41 48 22 26 1026.2 1026.2 0.0
19/09:30pm 15.3 8.2 10.9 75 2.3 E 39 48 21 26 1026.4 1026.4 0.0
19/09:00pm 15.2 7.6 10.4 73 2.5 E 41 50 22 27 1026.2 1026.2 0.0
19/08:30pm 15.0 7.7 10.2 73 2.5 E 39 46 21 25 1026.4 1026.4 0.0
19/08:00pm 15.0 7.6 10.0 72 2.6 E 39 46 21 25 1026.5 1026.5 0.0
19/07:30pm 15.2 8.7 10.2 72 2.6 E 35 43 19 23 1026.4 1026.4 0.0
19/07:00pm 15.2 8.6 10.0 71 2.7 E 35 44 19 24 1026.3 1026.3 0.0
19/06:30pm 15.1 8.5 9.9 71 2.7 E 35 44 19 24 1026.0 1026.0 0.0
19/06:00pm 15.3 8.7 10.1 71 2.7 E 35 43 19 23 1025.7 1025.7 0.0
19/05:30pm 15.6 9.4 10.2 70 2.8 E 33 41 18 22 1025.5 1025.5 0.0
19/05:00pm 15.7 9.4 9.8 68 3.1 E 33 39 18 21 1025.5 1025.5 0.0
19/04:30pm 16.0 9.4 9.9 67 3.2 E 35 41 19 22 1025.1 1025.1 0.0

Other formats

Comma delimited format used in spreadsheet applications
http://www.bom.gov.au/fwo/IDW60801/IDW60801.94644.axf

JavaScript Object Notation format (JSON) in row-major order
http://www.bom.gov.au/fwo/IDW60801/IDW60801.94644.json

Data quality

Most of these data are generated automatically and are frequently updated. Quality checks on data are not normally performed. It is possible for incorrect values to appear. Refer to information at About Latest Weather Observations and please check the disclaimer before using these data.